Time;durP1;ratioP1;P1;durP2;ratioP2;P2;SDS_P1;SDS_P2;PMS_P1;PMS_P2;Temp;Humidity;BMP_temperature;BMP_pressure;BME280_temperature;BME280_humidity;BME280_pressure;Samples;Min_cycle;Max_cycle;Signal;HPM_P1;HPM_P2
2022/02/03 00:05:20;;;;;;;;;;;;;;;21.78;21.76;97022.13;4969936;28;1023;-79
2022/02/03 00:26:06;;;;;;;;;;;;;;;22.29;21.01;97013.06;5008984;28;959;-77
2022/02/03 00:28:34;;;;;;;;;;;;;;;21.95;21.22;97019.78;5003200;28;1902;-78
2022/02/03 00:31:09;;;;;;;;;;;;;;;22.33;20.83;97030.69;5007949;28;975;-78
2022/02/03 00:33:40;;;;;;;;;;;;;;;22.24;20.97;97020.16;5003139;28;990;-78
2022/02/03 00:36:18;;;;;;;;;;;;;;;22.23;20.74;97029.91;4992941;28;1330;-78
2022/02/03 00:50:06;;;;;;;;;;;;;;;21.99;21.35;97023.25;4990099;28;1891;-78
2022/02/03 00:52:32;;;;;;;;;;;;;;;22.04;21.17;97028.28;5001800;28;1288;-78
2022/02/03 00:54:57;;;;;;;;;;;;;;;21.23;21.42;96959.72;5023203;28;854;-78
2022/02/03 00:57:30;;;;;;;;;;;;;;;22.21;21.10;97037.28;5026132;28;931;-78
2022/02/03 01:00:06;;;;;;;;;;;;;;;22.16;21.18;97041.53;5006946;28;893;-78
2022/02/03 01:02:32;;;;;;;;;;;;;;;21.81;21.55;97058.00;5025688;28;885;-78
2022/02/03 01:04:59;;;;;;;;;;;;;;;21.74;21.70;97050.59;5048250;28;913;-78
2022/02/03 01:07:25;;;;;;;;;;;;;;;22.12;21.12;97048.63;5083741;28;1080;-77
2022/02/03 01:10:06;;;;;;;;;;;;;;;22.09;21.12;97047.50;5065690;28;1890;-78
2022/02/03 01:12:49;;;;;;;;;;;;;;;21.70;21.38;97054.84;5081546;28;946;-78
2022/02/03 01:44:27;;;;;;;;;;;;;;;22.11;20.72;97045.00;5082560;28;874;-78
2022/02/03 01:47:08;;;;;;;;;;;;;;;21.67;21.67;97050.91;5086824;28;1108;-78
2022/02/03 01:52:26;;;;;;;;;;;;;;;21.59;21.49;97046.78;5085382;28;1074;-78
2022/02/03 01:54:52;;;;;;;;;;;;;;;22.18;21.04;97044.72;5084560;28;980;-78
2022/02/03 01:57:18;;;;;;;;;;;;;;;22.25;20.90;97035.09;5087728;28;908;-78
2022/02/03 01:59:43;;;;;;;;;;;;;;;21.52;21.54;97032.94;5069398;28;1000;-78
2022/02/03 02:02:08;;;;;;;;;;;;;;;21.79;21.54;97024.50;5086804;28;936;-78
2022/02/03 02:04:37;;;;;;;;;;;;;;;21.84;21.14;97009.72;5084396;28;1103;-78
2022/02/03 02:07:15;;;;;;;;;;;;;;;21.91;21.21;97002.16;5071137;28;1022;-78
2022/02/03 02:10:13;;;;;;;;;;;;;;;22.26;20.76;96997.78;5068979;28;1905;-78
2022/02/03 02:13:06;;;;;;;;;;;;;;;21.79;21.43;96989.72;5070879;28;985;-79
2022/02/03 02:37:12;;;;;;;;;;;;;;;22.33;20.47;97034.31;5069000;28;943;-78
2022/02/03 02:39:48;;;;;;;;;;;;;;;21.93;20.89;97047.81;5066100;28;1209;-79
2022/02/03 02:45:09;;;;;;;;;;;;;;;22.37;20.27;97051.13;5049725;28;884;-78
2022/02/03 02:47:46;;;;;;;;;;;;;;;21.66;21.40;97059.84;5011461;28;1902;-79
2022/02/03 02:50:13;;;;;;;;;;;;;;;22.26;20.76;97050.84;5010598;28;910;-78
2022/02/03 02:52:44;;;;;;;;;;;;;;;22.14;20.84;97052.56;4989009;28;1190;-79
2022/02/03 03:34:16;;;;;;;;;;;;;;;21.90;20.81;97109.00;4990264;28;1214;-78
2022/02/03 03:36:44;;;;;;;;;;;;;;;22.18;20.47;97107.03;5028089;28;937;-78
2022/02/03 03:39:13;;;;;;;;;;;;;;;22.00;20.89;97109.81;4993747;28;1211;-78
2022/02/03 03:41:39;;;;;;;;;;;;;;;22.37;20.46;97113.50;5012073;28;1074;-78
2022/02/03 03:44:07;;;;;;;;;;;;;;;22.25;20.58;97117.28;5009592;28;1051;-78
2022/02/03 03:46:34;;;;;;;;;;;;;;;21.90;20.71;97119.53;4995680;28;1052;-78
2022/02/03 03:49:05;;;;;;;;;;;;;;;22.40;20.08;97123.13;5008592;28;1944;-77
2022/02/03 03:51:37;;;;;;;;;;;;;;;22.14;20.46;97123.41;5007873;28;989;-78
2022/02/03 03:54:06;;;;;;;;;;;;;;;21.75;21.18;97134.28;4989743;28;1038;-78
2022/02/03 03:57:06;;;;;;;;;;;;;;;22.10;20.81;97134.88;4992097;28;1255;-78
2022/02/03 04:33:39;;;;;;;;;;;;;;;22.18;20.45;97183.53;5081246;28;985;-78
2022/02/03 05:04:22;;;;;;;;;;;;;;;21.33;21.53;97219.63;5003598;28;1128;-78
2022/02/03 05:07:07;;;;;;;;;;;;;;;21.85;20.92;97209.50;5008707;28;1753;-78
2022/02/03 05:18:05;;;;;;;;;;;;;;;22.12;20.38;97261.88;5025170;28;993;-78
2022/02/03 05:33:13;;;;;;;;;;;;;;;21.54;21.22;97282.34;4984520;28;1678;-78
2022/02/03 05:44:47;;;;;;;;;;;;;;;22.91;19.26;97281.34;4905827;29;1779;-78
2022/02/03 05:50:21;;;;;;;;;;;;;;;21.98;20.22;97296.44;4907053;29;1977;-78
2022/02/03 06:00:43;;;;;;;;;;;;;;;22.94;19.33;97308.75;4906759;29;995;-77
2022/02/03 06:06:51;;;;;;;;;;;;;;;22.48;19.63;97334.13;4909204;29;958;-78
2022/02/03 06:14:56;;;;;;;;;;;;;;;22.09;20.33;97331.59;4930055;29;1096;-78
2022/02/03 06:22:44;;;;;;;;;;;;;;;22.09;19.94;97342.13;4945557;29;923;-78
2022/02/03 06:27:47;;;;;;;;;;;;;;;21.99;20.31;97351.84;4946400;29;1907;-78
2022/02/03 06:30:13;;;;;;;;;;;;;;;21.55;20.84;97371.66;4928249;29;1867;-77
2022/02/03 06:32:39;;;;;;;;;;;;;;;22.06;20.28;97365.72;4892057;29;936;-78
2022/02/03 06:35:04;;;;;;;;;;;;;;;22.21;20.09;97366.78;4896046;29;1004;-78
2022/02/03 06:37:31;;;;;;;;;;;;;;;22.40;19.89;97366.88;4892239;29;941;-78
2022/02/03 06:39:57;;;;;;;;;;;;;;;22.30;19.97;97375.34;4858689;29;1738;-77
2022/02/03 06:42:23;;;;;;;;;;;;;;;22.06;19.96;97377.06;4882911;29;1792;-78
2022/02/03 06:44:57;;;;;;;;;;;;;;;22.22;19.89;97374.03;4885755;29;2058;-78
2022/02/03 06:47:31;;;;;;;;;;;;;;;22.22;19.90;97379.69;4857309;29;1002;-78
2022/02/03 06:52:31;;;;;;;;;;;;;;;22.38;19.80;97380.72;4930202;29;950;-78
2022/02/03 06:55:11;;;;;;;;;;;;;;;21.97;20.35;97374.19;4927697;29;1490;-78
2022/02/03 06:57:43;;;;;;;;;;;;;;;21.76;20.36;97379.41;4929778;29;996;-78
2022/02/03 07:00:17;;;;;;;;;;;;;;;22.28;20.02;97377.84;4936959;29;1584;-78
2022/02/03 07:02:45;;;;;;;;;;;;;;;21.84;20.40;97382.75;4967406;29;1025;-78
2022/02/03 07:05:10;;;;;;;;;;;;;;;22.03;19.96;97378.00;4950498;29;1711;-77
2022/02/03 07:07:40;;;;;;;;;;;;;;;22.22;20.08;97382.53;4951242;29;1067;-77
2022/02/03 07:10:07;;;;;;;;;;;;;;;22.15;19.84;97384.84;4976030;28;929;-77
2022/02/03 07:12:32;;;;;;;;;;;;;;;21.66;20.31;97391.91;4992974;28;1725;-78
2022/02/03 07:15:00;;;;;;;;;;;;;;;22.08;20.04;97385.91;4985293;28;1010;-77
2022/02/03 07:17:25;;;;;;;;;;;;;;;22.21;20.03;97392.28;5007186;28;938;-78
2022/02/03 07:19:54;;;;;;;;;;;;;;;22.07;20.00;97389.97;5008212;28;1772;-78
2022/02/03 07:22:19;;;;;;;;;;;;;;;22.17;20.01;97402.16;5021564;28;1869;-78
2022/02/03 07:24:45;;;;;;;;;;;;;;;22.28;19.76;97394.84;5007741;28;1916;-77
2022/02/03 07:27:11;;;;;;;;;;;;;;;22.35;19.47;97403.06;5026733;28;1371;-78
2022/02/03 07:29:36;;;;;;;;;;;;;;;22.08;19.92;97392.34;5023642;28;1906;-78
2022/02/03 07:32:02;;;;;;;;;;;;;;;21.87;20.54;97395.22;5029512;28;1051;-68
2022/02/03 07:34:28;;;;;;;;;;;;;;;22.76;19.66;97401.03;5035174;28;1017;-71
2022/02/03 07:36:53;;;;;;;;;;;;;;;23.19;19.25;97399.28;5034305;28;1365;-70
2022/02/03 07:39:19;;;;;;;;;;;;;;;23.04;19.34;97404.75;5020565;28;1785;-72
2022/02/03 07:41:44;;;;;;;;;;;;;;;23.47;18.90;97405.00;5013211;28;1815;-69
2022/02/03 07:44:13;;;;;;;;;;;;;;;23.55;18.95;97414.78;5014419;28;1622;-68
2022/02/03 07:46:39;;;;;;;;;;;;;;;23.62;19.04;97403.09;5009098;28;1991;-70
2022/02/03 07:49:04;;;;;;;;;;;;;;;23.75;19.13;97411.50;5015155;28;1914;-69
2022/02/03 07:51:30;;;;;;;;;;;;;;;23.91;19.13;97414.00;5009300;28;1689;-69
2022/02/03 07:53:55;;;;;;;;;;;;;;;24.04;19.28;97411.81;5478078;22;3549;-68
2022/02/03 07:56:21;;;;;;;;;;;;;;;24.12;19.50;97412.25;5097585;28;1548;-68
2022/02/03 07:58:47;;;;;;;;;;;;;;;23.86;19.91;97426.00;5097383;28;882;-68
2022/02/03 08:01:13;;;;;;;;;;;;;;;23.62;20.37;97414.47;5059997;28;1798;-67
2022/02/03 08:03:41;;;;;;;;;;;;;;;23.43;20.60;97418.56;5097409;28;1009;-67
2022/02/03 08:06:10;;;;;;;;;;;;;;;23.53;20.68;97428.66;5046979;28;1877;-67
2022/02/03 08:11:27;;;;;;;;;;;;;;;23.69;20.84;97436.91;5015052;28;1035;-66
2022/02/03 08:13:59;;;;;;;;;;;;;;;23.65;21.07;97439.13;5015226;28;947;-66
2022/02/03 08:16:31;;;;;;;;;;;;;;;21.42;21.67;97182.13;5015442;28;1040;-66
2022/02/03 08:19:04;;;;;;;;;;;;;;;23.67;21.43;97450.78;5014824;28;2031;-66
2022/02/03 08:21:32;;;;;;;;;;;;;;;23.92;21.35;97461.84;5015486;28;1039;-66
2022/02/03 08:24:20;;;;;;;;;;;;;;;23.75;21.59;97457.75;5015033;28;1037;-66
2022/02/03 08:32:22;;;;;;;;;;;;;;;23.81;22.07;97464.38;4975978;28;1307;-67
2022/02/03 08:35:19;;;;;;;;;;;;;;;23.46;22.03;97463.81;4975784;28;1005;-66
2022/02/03 08:37:53;;;;;;;;;;;;;;;23.74;21.70;97467.53;4975024;28;1864;-67
2022/02/03 08:40:29;;;;;;;;;;;;;;;23.76;21.68;97476.34;4975729;28;990;-71
2022/02/03 08:42:55;;;;;;;;;;;;;;;23.72;22.22;97486.28;4960431;28;1120;-75
2022/02/03 08:45:20;;;;;;;;;;;;;;;23.89;22.63;97479.84;4959062;28;970;-74
2022/02/03 08:47:46;;;;;;;;;;;;;;;23.75;22.97;97486.16;4987706;28;1914;-73
2022/02/03 08:50:11;;;;;;;;;;;;;;;23.65;23.42;97487.41;5033480;28;1796;-73
2022/02/03 08:52:56;;;;;;;;;;;;;;;23.75;23.28;97491.81;5018485;28;1033;-76
2022/02/03 09:52:13;;;;;;;;;;;;;;;24.86;21.82;97533.16;5052760;28;2146;-65
2022/02/03 09:59:48;;;;;;;;;;;;;;;24.68;21.68;97530.34;5053284;28;1115;-64
2022/02/03 10:02:20;;;;;;;;;;;;;;;24.69;21.83;97540.44;5039061;28;2011;-65
2022/02/03 10:07:24;;;;;;;;;;;;;;;24.06;22.63;97544.91;5057377;28;1059;-76
2022/02/03 10:09:50;;;;;;;;;;;;;;;23.90;23.40;97546.78;5041481;28;1906;-72
2022/02/03 10:12:15;;;;;;;;;;;;;;;23.58;23.73;97550.16;5040141;28;1006;-72
2022/02/03 10:14:42;;;;;;;;;;;;;;;23.51;23.98;97556.13;5056098;28;2145;-74
2022/02/03 10:17:08;;;;;;;;;;;;;;;23.53;23.92;97559.31;5057137;28;979;-74
2022/02/03 10:19:40;;;;;;;;;;;;;;;23.20;24.72;97564.69;5057061;28;883;-76
2022/02/03 10:22:20;;;;;;;;;;;;;;;23.64;24.06;97565.34;5041365;28;1895;-64
2022/02/03 10:24:50;;;;;;;;;;;;;;;24.24;23.01;97581.84;5056834;28;1057;-64
2022/02/03 10:27:24;;;;;;;;;;;;;;;24.41;22.56;97571.78;5067020;28;1057;-63
2022/02/03 10:29:49;;;;;;;;;;;;;;;24.61;22.03;97567.66;5099256;28;1918;-64
2022/02/03 10:32:15;;;;;;;;;;;;;;;24.76;21.67;97574.28;5077324;28;1211;-64
2022/02/03 10:34:41;;;;;;;;;;;;;;;24.50;22.13;97562.47;5099270;28;1054;-63
2022/02/03 10:37:24;;;;;;;;;;;;;;;24.34;22.42;97577.72;5236805;22;3680;-64
2022/02/03 10:58:25;;;;;;;;;;;;;;;23.32;23.01;97595.81;5016756;28;1736;-71
2022/02/03 11:01:14;;;;;;;;;;;;;;;23.05;23.64;97601.34;4977439;28;975;-71
2022/02/03 11:06:19;;;;;;;;;;;;;;;22.80;23.37;97611.59;4977750;28;1551;-71
2022/02/03 11:08:55;;;;;;;;;;;;;;;22.67;23.75;97613.69;4992086;28;2037;-72
2022/02/03 11:11:31;;;;;;;;;;;;;;;22.88;23.20;97618.59;4992290;28;997;-71
2022/02/03 11:13:56;;;;;;;;;;;;;;;23.03;23.36;97620.91;4976778;28;1026;-72
2022/02/03 11:16:22;;;;;;;;;;;;;;;23.01;23.06;97621.38;4964789;28;1951;-71
2022/02/03 11:18:48;;;;;;;;;;;;;;;23.09;22.75;97628.34;4957921;28;944;-71
2022/02/03 11:21:14;;;;;;;;;;;;;;;22.99;23.27;97623.06;4957744;28;1057;-71
2022/02/03 11:23:46;;;;;;;;;;;;;;;23.13;22.67;97628.19;4972484;28;1660;-71
2022/02/03 11:29:09;;;;;;;;;;;;;;;22.99;22.66;97628.75;4985588;28;1907;-71
2022/02/03 11:42:07;;;;;;;;;;;;;;;22.81;22.90;97657.75;4942088;28;967;-72
2022/02/03 11:45:08;;;;;;;;;;;;;;;22.79;22.73;97658.22;4938355;29;982;-71
2022/02/03 12:20:33;;;;;;;;;;;;;;;22.51;22.43;97704.63;4852667;29;1867;-71
2022/02/03 12:23:10;;;;;;;;;;;;;;;22.46;22.49;97710.88;4894858;29;1013;-71
2022/02/03 12:25:45;;;;;;;;;;;;;;;22.38;22.14;97715.97;4918094;29;1759;-71
2022/02/03 12:28:19;;;;;;;;;;;;;;;22.43;22.29;97725.94;4911514;29;1907;-71
2022/02/03 12:38:49;;;;;;;;;;;;;;;22.41;22.05;97737.75;4943448;29;1089;-71
2022/02/03 12:41:20;;;;;;;;;;;;;;;22.36;22.44;97741.97;4932997;29;1125;-71
2022/02/03 12:43:55;;;;;;;;;;;;;;;22.25;22.51;97741.53;4895723;29;1782;-71
2022/02/03 12:46:20;;;;;;;;;;;;;;;21.49;23.16;97735.81;4899369;29;1024;-71
2022/02/03 12:48:45;;;;;;;;;;;;;;;22.01;22.81;97748.78;4899276;29;1980;-71
2022/02/03 12:51:11;;;;;;;;;;;;;;;22.26;22.37;97748.78;4899475;29;1035;-64
2022/02/03 12:53:40;;;;;;;;;;;;;;;22.49;21.99;97749.66;4933017;28;1711;-65
2022/02/03 12:56:07;;;;;;;;;;;;;;;23.08;21.53;97750.84;4995473;28;974;-73
2022/02/03 12:58:38;;;;;;;;;;;;;;;23.37;21.02;97757.03;4994824;28;1064;-73
2022/02/03 13:01:13;;;;;;;;;;;;;;;23.22;21.10;97766.56;4955912;28;1732;-74
2022/02/03 13:03:42;;;;;;;;;;;;;;;23.21;21.29;97771.44;4941127;29;1643;-73
2022/02/03 13:06:11;;;;;;;;;;;;;;;22.93;21.75;97766.78;4937116;29;973;-71
2022/02/03 13:08:43;;;;;;;;;;;;;;;22.82;22.04;97762.25;4936368;29;1999;-72
2022/02/03 13:17:06;;;;;;;;;;;;;;;22.42;23.30;97772.56;4956297;28;1028;-72
2022/02/03 13:19:53;;;;;;;;;;;;;;;22.63;23.21;97777.50;4917127;29;1733;-72
2022/02/03 13:25:16;;;;;;;;;;;;;;;22.55;23.44;97781.84;4899021;29;945;-71
2022/02/03 13:33:17;;;;;;;;;;;;;;;23.20;23.25;97786.06;4806004;29;1670;-72
2022/02/03 13:38:20;;;;;;;;;;;;;;;22.78;24.20;97781.44;4836177;29;1220;-77
2022/02/03 13:40:45;;;;;;;;;;;;;;;23.17;23.99;97782.13;4831376;29;1804;-78
2022/02/03 13:43:13;;;;;;;;;;;;;;;22.81;24.24;97788.25;4813689;29;1534;-74
2022/02/03 13:45:39;;;;;;;;;;;;;;;23.89;22.68;97783.88;4828509;29;1032;-71
2022/02/03 13:48:31;;;;;;;;;;;;;;;23.72;22.85;97793.09;4828386;29;1908;-71
2022/02/03 13:51:00;;;;;;;;;;;;;;;24.24;22.08;97794.28;4801619;29;1866;-66
2022/02/03 13:53:36;;;;;;;;;;;;;;;24.41;21.28;97787.91;4849131;29;1193;-66
2022/02/03 14:13:31;;;;;;;;;;;;;;;24.79;21.15;97800.94;4883271;29;1876;-68
2022/02/03 14:18:16;;;;;;;;;;;;;;;24.66;21.45;97820.22;4887341;29;1023;-71
2022/02/03 14:28:16;;;;;;;;;;;;;;;24.45;22.54;97827.59;4962165;28;1899;-72
2022/02/03 14:30:46;;;;;;;;;;;;;;;23.77;23.35;97826.56;4998104;28;1021;-71
2022/02/03 14:33:16;;;;;;;;;;;;;;;24.12;23.14;97832.94;4981556;28;1766;-72
2022/02/03 14:35:43;;;;;;;;;;;;;;;24.29;22.83;97837.09;4998079;28;1282;-72
2022/02/03 14:38:17;;;;;;;;;;;;;;;24.46;23.00;97839.75;4997605;28;1168;-74
2022/02/03 14:40:58;;;;;;;;;;;;;;;24.15;23.37;97837.69;4982580;28;994;-67
2022/02/03 14:43:24;;;;;;;;;;;;;;;24.69;22.46;97842.81;4997729;28;1773;-68
2022/02/03 14:45:49;;;;;;;;;;;;;;;24.45;22.76;97844.66;4997461;28;1673;-75
2022/02/03 14:48:16;;;;;;;;;;;;;;;24.28;22.64;97846.91;4996269;28;1983;-75
2022/02/03 14:50:44;;;;;;;;;;;;;;;24.23;22.75;97847.50;4997699;28;954;-75
2022/02/03 14:53:29;;;;;;;;;;;;;;;23.70;23.69;97853.22;4977399;28;1691;-76
2022/02/03 14:58:39;;;;;;;;;;;;;;;23.86;23.01;97855.84;4958386;28;1696;-76
2022/02/03 15:01:04;;;;;;;;;;;;;;;23.80;22.97;97857.69;4939479;29;1720;-77
2022/02/03 15:03:31;;;;;;;;;;;;;;;24.00;22.59;97850.88;4908024;29;1754;-80
2022/02/03 15:06:03;;;;;;;;;;;;;;;23.75;22.48;97857.50;4925637;29;945;-79
2022/02/03 15:08:57;;;;;;;;;;;;;;;23.38;23.16;97855.16;4938842;29;1919;-74
2022/02/03 15:11:26;;;;;;;;;;;;;;;23.06;23.46;97864.03;4937130;29;1006;-75
2022/02/03 15:13:51;;;;;;;;;;;;;;;23.07;23.17;97857.09;4939013;29;1688;-74
2022/02/03 15:16:17;;;;;;;;;;;;;;;22.97;23.53;97858.25;4923892;29;1050;-74
2022/02/03 15:18:42;;;;;;;;;;;;;;;23.06;23.23;97867.66;4938667;29;1715;-75
2022/02/03 15:21:10;;;;;;;;;;;;;;;22.88;23.43;97873.13;4939112;29;1105;-75
2022/02/03 15:23:35;;;;;;;;;;;;;;;22.34;23.94;97874.84;4943989;29;1723;-75
2022/02/03 15:26:01;;;;;;;;;;;;;;;22.74;23.89;97863.03;4957271;29;1830;-74
2022/02/03 15:28:26;;;;;;;;;;;;;;;23.03;23.27;97873.44;4956283;29;1989;-74
2022/02/03 15:30:54;;;;;;;;;;;;;;;23.02;22.91;97872.66;4957881;29;1032;-74
2022/02/03 15:33:24;;;;;;;;;;;;;;;22.96;23.13;97876.53;4957977;29;1001;-74
2022/02/03 15:35:52;;;;;;;;;;;;;;;22.93;23.09;97883.13;4946072;29;1683;-75
2022/02/03 15:38:20;;;;;;;;;;;;;;;22.11;24.30;97883.66;4957194;28;1610;-74
2022/02/03 15:40:47;;;;;;;;;;;;;;;22.95;23.26;97883.44;4977024;28;988;-74
2022/02/03 15:43:25;;;;;;;;;;;;;;;22.93;22.84;97891.63;4977410;28;929;-74
2022/02/03 15:45:54;;;;;;;;;;;;;;;22.93;22.70;97902.97;4987688;28;1913;-74
2022/02/03 15:51:15;;;;;;;;;;;;;;;22.95;22.99;97906.13;4996362;28;930;-75
2022/02/03 16:18:09;;;;;;;;;;;;;;;22.82;22.47;97955.16;5037457;28;877;-74
2022/02/03 16:20:41;;;;;;;;;;;;;;;22.92;22.22;97958.13;5037640;28;889;-74
2022/02/03 16:23:34;;;;;;;;;;;;;;;22.67;22.77;97959.69;5037273;28;895;-75
2022/02/03 16:53:11;;;;;;;;;;;;;;;22.81;22.01;97998.97;4880870;29;954;-74
2022/02/03 16:55:39;;;;;;;;;;;;;;;22.63;22.19;97996.66;4880489;29;1221;-76
2022/02/03 16:58:07;;;;;;;;;;;;;;;22.75;22.03;98000.00;4880517;29;1030;-75
2022/02/03 17:00:33;;;;;;;;;;;;;;;22.65;22.16;97989.78;4881629;29;1804;-75
2022/02/03 17:02:59;;;;;;;;;;;;;;;22.15;22.67;98003.38;4920939;29;1093;-74
2022/02/03 17:05:25;;;;;;;;;;;;;;;22.57;22.35;98017.53;4937177;29;1021;-74
2022/02/03 17:07:50;;;;;;;;;;;;;;;22.72;22.28;98021.53;4936779;29;1048;-74
2022/02/03 17:10:15;;;;;;;;;;;;;;;22.45;22.31;98021.16;4936826;29;1966;-74
2022/02/03 17:12:41;;;;;;;;;;;;;;;22.07;22.54;98021.78;4936374;29;1026;-74
2022/02/03 17:15:07;;;;;;;;;;;;;;;22.61;22.03;98019.03;4936955;29;1061;-74
2022/02/03 17:17:32;;;;;;;;;;;;;;;22.60;22.30;98025.16;4936902;29;1020;-74
2022/02/03 17:19:58;;;;;;;;;;;;;;;22.29;22.48;98017.16;4936848;29;1854;-74
2022/02/03 17:22:28;;;;;;;;;;;;;;;22.76;21.74;98019.38;4952561;28;976;-74
2022/02/03 18:46:05;;;;;;;;;;;;;;;22.39;21.76;98079.66;4882732;29;930;-74
2022/02/03 18:51:22;;;;;;;;;;;;;;;22.52;21.61;98077.66;4940541;29;1768;-74
2022/02/03 19:28:15;;;;;;;;;;;;;;;22.60;21.38;98096.84;4996764;28;1003;-74
2022/02/03 20:03:40;;;;;;;;;;;;;;;21.85;22.07;98127.19;4938313;29;1392;-74
2022/02/03 20:06:35;;;;;;;;;;;;;;;22.48;21.29;98131.59;4938080;29;1139;-74
2022/02/03 20:09:03;;;;;;;;;;;;;;;22.66;21.34;98130.31;4921292;29;1910;-74
2022/02/03 20:11:29;;;;;;;;;;;;;;;22.60;21.06;98132.91;4919217;29;1005;-74
2022/02/03 20:13:54;;;;;;;;;;;;;;;22.44;21.63;98121.63;4938055;29;1056;-75
2022/02/03 20:16:22;;;;;;;;;;;;;;;22.44;21.25;98115.97;4937539;29;1758;-74
2022/02/03 20:18:47;;;;;;;;;;;;;;;21.99;21.64;98114.72;4899929;29;997;-74
2022/02/03 20:21:13;;;;;;;;;;;;;;;22.21;21.70;98108.50;4900025;29;1049;-74
2022/02/03 20:23:43;;;;;;;;;;;;;;;22.52;21.37;98123.00;4899889;29;1229;-74
2022/02/03 20:26:08;;;;;;;;;;;;;;;22.59;21.09;98114.31;4900015;29;1061;-74
2022/02/03 20:28:34;;;;;;;;;;;;;;;22.52;21.10;98123.00;4908592;29;1907;-74
2022/02/03 20:31:00;;;;;;;;;;;;;;;22.31;21.36;98130.88;4918782;29;941;-74
2022/02/03 20:33:26;;;;;;;;;;;;;;;22.32;21.63;98135.28;4918565;29;1071;-75
2022/02/03 20:35:51;;;;;;;;;;;;;;;22.11;21.91;98138.72;4918507;29;1138;-74
2022/02/03 20:38:16;;;;;;;;;;;;;;;22.57;21.09;98148.00;4917873;29;1720;-74
2022/02/03 20:40:42;;;;;;;;;;;;;;;22.34;21.45;98140.53;4918469;29;974;-74
2022/02/03 20:43:08;;;;;;;;;;;;;;;21.37;22.82;98141.34;4918504;29;1029;-74
2022/02/03 20:45:34;;;;;;;;;;;;;;;22.40;21.27;98143.63;4918300;29;1089;-74
2022/02/03 20:47:59;;;;;;;;;;;;;;;22.52;21.10;98140.03;4905207;29;1696;-74
2022/02/03 20:50:25;;;;;;;;;;;;;;;21.93;22.07;98146.84;4958084;28;1915;-74
2022/02/03 20:52:50;;;;;;;;;;;;;;;22.31;21.58;98150.72;4975808;28;1152;-74
2022/02/03 20:55:16;;;;;;;;;;;;;;;22.33;21.48;98156.75;4976205;28;966;-75
2022/02/03 20:57:41;;;;;;;;;;;;;;;22.04;21.84;98161.53;4956056;28;1774;-74
2022/02/03 21:02:41;;;;;;;;;;;;;;;22.60;21.15;98155.59;4959439;28;1111;-75
2022/02/03 21:05:12;;;;;;;;;;;;;;;22.53;21.21;98147.28;4975859;28;970;-74
2022/02/03 21:07:37;;;;;;;;;;;;;;;22.45;21.38;98157.25;4980522;28;1837;-74
2022/02/03 21:10:05;;;;;;;;;;;;;;;21.99;21.60;98160.03;4978749;28;1993;-74
2022/02/03 21:12:31;;;;;;;;;;;;;;;22.40;21.23;98149.28;4994967;28;923;-75
2022/02/03 21:14:59;;;;;;;;;;;;;;;21.82;21.78;98150.75;4995083;28;930;-75
2022/02/03 21:17:28;;;;;;;;;;;;;;;21.97;21.74;98150.41;4991074;28;1713;-75
2022/02/03 21:19:54;;;;;;;;;;;;;;;22.24;21.18;98144.47;4964769;28;1030;-75
2022/02/03 21:22:21;;;;;;;;;;;;;;;22.49;21.17;98149.44;4978684;28;1043;-74
2022/02/03 21:24:47;;;;;;;;;;;;;;;22.27;21.47;98141.50;4994745;28;1035;-74
2022/02/03 21:27:17;;;;;;;;;;;;;;;22.70;20.67;98128.97;4995214;28;1698;-75
2022/02/03 21:29:43;;;;;;;;;;;;;;;22.25;21.44;98127.00;4994936;28;1985;-74
2022/02/03 21:32:09;;;;;;;;;;;;;;;22.26;21.30;98133.44;4994403;28;1087;-74
2022/02/03 21:34:34;;;;;;;;;;;;;;;22.65;20.77;98138.03;4994964;28;1132;-74
2022/02/03 21:37:00;;;;;;;;;;;;;;;22.50;20.92;98137.66;4994874;28;1842;-75
2022/02/03 21:39:25;;;;;;;;;;;;;;;22.06;21.68;98153.38;5013762;28;1822;-74
2022/02/03 21:41:51;;;;;;;;;;;;;;;22.57;20.81;98159.31;5012707;28;1705;-74
2022/02/03 21:44:16;;;;;;;;;;;;;;;22.45;21.11;98168.59;5014265;28;1017;-75
2022/02/03 21:46:42;;;;;;;;;;;;;;;22.26;21.07;98179.59;5014372;28;944;-74
2022/02/03 21:49:07;;;;;;;;;;;;;;;21.84;21.71;98185.09;5014351;28;1914;-74
2022/02/03 21:51:39;;;;;;;;;;;;;;;22.20;21.50;98181.38;5019962;28;1690;-75
2022/02/03 21:54:05;;;;;;;;;;;;;;;22.52;20.93;98180.53;5019447;28;1259;-74
2022/02/03 21:56:30;;;;;;;;;;;;;;;22.42;21.09;98170.25;5018530;28;1645;-74
2022/02/03 21:58:56;;;;;;;;;;;;;;;21.73;21.90;98176.06;5039235;28;915;-74
2022/02/03 22:01:24;;;;;;;;;;;;;;;22.42;21.14;98175.16;5039674;28;1754;-75
2022/02/03 22:03:50;;;;;;;;;;;;;;;22.49;20.76;98169.28;5040283;28;942;-75
2022/02/03 22:06:15;;;;;;;;;;;;;;;22.34;21.05;98172.50;5040301;28;866;-75
2022/02/03 22:08:42;;;;;;;;;;;;;;;22.31;21.25;98181.09;5040426;28;1898;-74
2022/02/03 22:11:07;;;;;;;;;;;;;;;22.45;20.88;98168.59;5040000;28;1657;-74
2022/02/03 22:13:36;;;;;;;;;;;;;;;22.44;21.05;98167.00;5036884;28;1578;-75
2022/02/03 22:16:06;;;;;;;;;;;;;;;22.57;20.99;98171.47;5040040;28;1118;-74
2022/02/03 22:18:32;;;;;;;;;;;;;;;22.55;20.81;98178.84;5039605;28;1021;-74
2022/02/03 22:21:03;;;;;;;;;;;;;;;22.17;21.53;98187.13;5039778;28;974;-74
2022/02/03 22:47:42;;;;;;;;;;;;;;;22.40;21.07;98194.66;5038851;28;1665;-75
2022/02/03 22:50:08;;;;;;;;;;;;;;;22.12;21.20;98190.50;5039475;28;1902;-74
2022/02/03 22:52:33;;;;;;;;;;;;;;;22.09;21.18;98190.13;5021655;28;859;-74
2022/02/03 22:54:59;;;;;;;;;;;;;;;22.10;21.21;98188.09;5021302;28;947;-74
2022/02/03 22:57:25;;;;;;;;;;;;;;;22.40;20.80;98180.47;5039269;28;1629;-75
2022/02/03 23:00:14;;;;;;;;;;;;;;;22.45;20.82;98174.25;5039252;28;959;-74
2022/02/03 23:02:40;;;;;;;;;;;;;;;22.61;20.79;98165.69;5039137;28;941;-74
2022/02/03 23:05:06;;;;;;;;;;;;;;;22.70;20.51;98174.38;5039088;28;938;-74
2022/02/03 23:07:51;;;;;;;;;;;;;;;22.68;20.51;98185.34;4996756;28;1670;-74
2022/02/03 23:13:07;;;;;;;;;;;;;;;22.65;20.50;98193.97;4997354;28;907;-74
2022/02/03 23:20:50;;;;;;;;;;;;;;;22.13;21.35;98203.47;4977332;28;954;-74
2022/02/03 23:23:15;;;;;;;;;;;;;;;21.72;21.65;98194.31;4977429;28;923;-74
2022/02/03 23:25:44;;;;;;;;;;;;;;;22.33;21.18;98204.16;4977631;28;971;-74
2022/02/03 23:28:27;;;;;;;;;;;;;;;22.02;21.07;98203.66;4977047;28;1897;-75
2022/02/03 23:30:52;;;;;;;;;;;;;;;21.99;21.30;98210.25;4977506;28;952;-75
2022/02/03 23:33:18;;;;;;;;;;;;;;;22.33;21.05;98213.44;4977517;28;995;-75
2022/02/03 23:35:44;;;;;;;;;;;;;;;22.40;20.87;98220.97;4960801;28;969;-75
2022/02/03 23:38:29;;;;;;;;;;;;;;;21.97;21.03;98218.41;4974899;28;1659;-74
